createdAt,value
2017-08-15T06:27:07.326Z,11784
2017-08-15T06:28:08.747Z,11892
2017-08-15T06:29:30.272Z,12072
2017-08-15T06:30:31.699Z,12244
2017-08-15T06:31:53.237Z,12484
2017-08-15T06:32:54.813Z,12612
2017-08-15T06:34:16.322Z,12888
2017-08-15T06:35:17.790Z,13056
2017-08-15T06:36:39.306Z,13140
2017-08-15T06:37:40.729Z,13244
2017-08-15T06:39:02.260Z,12460
2017-08-15T06:40:03.687Z,12872
2017-08-15T06:41:25.204Z,12336
2017-08-15T06:42:26.629Z,12772
2017-08-15T06:43:48.166Z,12960
2017-08-15T06:44:49.602Z,13484
2017-08-15T06:46:11.107Z,12648
2017-08-15T06:47:12.531Z,12944
2017-08-15T06:48:34.067Z,13200
2017-08-15T06:49:35.492Z,13060
2017-08-15T06:50:57.011Z,13080
2017-08-15T06:51:58.435Z,12320
2017-08-15T06:53:19.969Z,12152
2017-08-15T06:54:21.394Z,12812
2017-08-15T06:55:42.913Z,13472
2017-08-15T06:56:44.339Z,13948
2017-08-15T06:58:05.874Z,12688
2017-08-15T06:59:07.298Z,14352
2017-08-15T07:00:28.816Z,15616
2017-08-15T07:01:30.238Z,15680
2017-08-15T07:02:51.774Z,13416
2017-08-15T07:03:53.201Z,14280
2017-08-15T07:05:14.718Z,14980
2017-08-15T07:06:16.144Z,11692
2017-08-15T07:07:37.674Z,7436
2017-08-15T07:08:39.099Z,6304
2017-08-15T07:10:00.641Z,5492
2017-08-15T07:11:02.081Z,5448
2017-08-15T07:12:23.621Z,5436
2017-08-15T07:13:25.043Z,5452
2017-08-15T07:14:46.560Z,5296
2017-08-15T07:15:47.980Z,5372
2017-08-15T07:17:09.515Z,5260
2017-08-15T07:18:10.937Z,5400
2017-08-15T07:19:33.445Z,5376
2017-08-15T07:20:34.867Z,5408
2017-08-15T07:21:56.379Z,5372
2017-08-15T07:22:57.800Z,5356
2017-08-15T07:24:19.627Z,5316
2017-08-15T07:25:21.047Z,5312
2017-08-15T07:26:43.065Z,5372
2017-08-15T07:27:44.486Z,5412
2017-08-15T07:29:06.015Z,5604
2017-08-15T07:30:07.440Z,5724
2017-08-15T07:31:29.460Z,5872
2017-08-15T07:32:30.882Z,5744
2017-08-15T07:33:52.420Z,5652
2017-08-15T07:34:53.844Z,5580
2017-08-15T07:36:15.355Z,5312
2017-08-15T07:37:16.777Z,5232
2017-08-15T07:38:38.801Z,5156
2017-08-15T07:39:40.220Z,5132
2017-08-15T07:41:01.729Z,5168
2017-08-15T07:42:03.147Z,5228
2017-08-15T07:43:24.679Z,5300
2017-08-15T07:44:26.101Z,5352
2017-08-15T07:45:47.616Z,5364
2017-08-15T07:46:49.037Z,5412
2017-08-15T07:48:10.568Z,5592
2017-08-15T07:49:11.988Z,5760
2017-08-15T07:50:33.499Z,6040
2017-08-15T07:51:34.918Z,6304
2017-08-15T07:52:56.452Z,6696
2017-08-15T07:53:57.874Z,7004
2017-08-15T07:55:19.384Z,7324
2017-08-15T07:56:20.805Z,7452
2017-08-15T07:57:42.339Z,7644
2017-08-15T07:58:43.758Z,7852
2017-08-15T08:00:05.272Z,8152
2017-08-15T08:01:06.692Z,8304
2017-08-15T08:02:28.224Z,8484
2017-08-15T08:03:29.646Z,8552
2017-08-15T08:04:51.163Z,8380
2017-08-15T08:05:52.583Z,8228
2017-08-15T08:07:14.116Z,7872
2017-08-15T08:08:15.541Z,7688
2017-08-15T08:09:37.046Z,7740
2017-08-15T08:10:38.465Z,7716
2017-08-15T08:11:59.981Z,7500
2017-08-15T08:13:01.399Z,7368
2017-08-15T08:14:22.931Z,7408
2017-08-15T08:15:24.353Z,7468
2017-08-15T08:16:45.869Z,7532
2017-08-15T08:17:47.287Z,7676
2017-08-15T08:19:08.820Z,7768
2017-08-15T08:20:10.241Z,7836
2017-08-15T08:21:31.757Z,7936
2017-08-15T08:22:33.172Z,7988
2017-08-15T08:23:54.704Z,8128
2017-08-15T08:24:56.131Z,8148
2017-08-15T08:26:17.646Z,8148
2017-08-15T08:27:19.066Z,8260
2017-08-15T08:28:40.599Z,8096
2017-08-15T08:29:42.027Z,8140
2017-08-15T08:31:03.540Z,8300
2017-08-15T08:32:04.962Z,8524
2017-08-15T08:33:26.491Z,8712
2017-08-15T08:34:27.914Z,8772
2017-08-15T08:35:49.429Z,8820
2017-08-15T08:36:50.851Z,8848
2017-08-15T08:38:12.480Z,8776
2017-08-15T08:39:13.906Z,8868
2017-08-15T08:40:35.421Z,8936
2017-08-15T08:41:36.842Z,8816
2017-08-15T08:42:58.374Z,8632
2017-08-15T08:43:59.797Z,8756
2017-08-15T08:45:21.311Z,9320
2017-08-15T08:46:22.733Z,9208
2017-08-15T08:47:44.265Z,8732
2017-08-15T08:48:45.687Z,8636
2017-08-15T08:50:07.259Z,9704
2017-08-15T08:51:08.746Z,11212
2017-08-15T08:52:30.278Z,11832
2017-08-15T08:53:31.703Z,11664
2017-08-15T08:54:53.234Z,10620
2017-08-15T08:55:55.111Z,10372
2017-08-15T08:57:16.846Z,10472
2017-08-15T08:58:18.747Z,10512
2017-08-15T08:59:40.073Z,10124
2017-08-15T09:00:41.498Z,9816
2017-08-15T09:02:03.011Z,9720
2017-08-15T09:03:04.433Z,9840
2017-08-15T09:04:26.002Z,10160
2017-08-15T09:05:27.427Z,10416
2017-08-15T09:06:48.942Z,10688
2017-08-15T09:07:50.366Z,10920
2017-08-15T09:09:11.901Z,11240
2017-08-15T09:10:13.327Z,11432
2017-08-15T09:11:34.846Z,11692
2017-08-15T09:12:36.272Z,11856
2017-08-15T09:13:57.809Z,12076
2017-08-15T09:14:59.234Z,12232
2017-08-15T09:16:20.767Z,12432
2017-08-15T09:17:22.398Z,12584
2017-08-15T09:18:44.104Z,12828
2017-08-15T09:19:45.529Z,13000
2017-08-15T09:21:07.042Z,13220
2017-08-15T09:22:08.468Z,13372
2017-08-15T09:23:30.006Z,13488
2017-08-15T09:24:31.429Z,13604
2017-08-15T09:25:52.947Z,13444
2017-08-15T09:26:54.368Z,12904
2017-08-15T09:28:15.913Z,12568
2017-08-15T09:29:17.336Z,12784
2017-08-15T09:30:38.872Z,13096
2017-08-15T09:31:40.295Z,13260
2017-08-15T09:33:01.829Z,13496
2017-08-15T09:34:03.255Z,13472
2017-08-15T09:35:25.335Z,13228
2017-08-15T09:36:26.806Z,13020
2017-08-15T09:37:48.830Z,12812
2017-08-15T09:38:50.248Z,12880
2017-08-15T09:40:11.982Z,12744
2017-08-15T09:41:13.364Z,13168
2017-08-15T09:42:34.879Z,13580
2017-08-15T09:43:36.304Z,13688
2017-08-15T09:44:57.849Z,13628
2017-08-15T09:45:59.391Z,13708
2017-08-15T09:47:21.187Z,13768
2017-08-15T09:48:22.613Z,13768
2017-08-15T09:49:44.176Z,13640
2017-08-15T09:50:45.602Z,13516
2017-08-15T09:52:07.119Z,13380
2017-08-15T09:53:08.650Z,13332
2017-08-15T09:54:30.186Z,13464
2017-08-15T09:55:31.613Z,13524
2017-08-15T09:56:53.135Z,13656
2017-08-15T09:57:54.557Z,13820
2017-08-15T09:59:16.093Z,14020
2017-08-15T10:00:17.520Z,14136
2017-08-15T10:01:39.038Z,14220
2017-08-15T10:02:40.463Z,14264
2017-08-15T10:04:02.001Z,14336
2017-08-15T10:05:03.429Z,14404
2017-08-15T10:06:24.947Z,14504
2017-08-15T10:07:26.374Z,14576
2017-08-15T10:08:47.913Z,14652
2017-08-15T10:09:49.338Z,14668
2017-08-15T10:11:10.857Z,14640
2017-08-15T10:12:12.777Z,14612
2017-08-15T10:13:34.493Z,14572
2017-08-15T10:14:36.094Z,14524
2017-08-15T10:15:57.608Z,14448
2017-08-15T10:16:59.098Z,14384
2017-08-15T10:18:20.637Z,14316
2017-08-15T10:19:22.063Z,14260
2017-08-15T10:20:43.587Z,14212
2017-08-15T10:21:45.006Z,14176
2017-08-15T10:23:06.544Z,14148
2017-08-15T10:24:07.973Z,14120
2017-08-15T10:25:29.492Z,14084
2017-08-15T10:26:30.919Z,14044
2017-08-15T10:27:52.430Z,13944
2017-08-15T10:28:53.853Z,13864
2017-08-15T10:30:15.389Z,13828
2017-08-15T10:31:16.817Z,13840
2017-08-15T10:32:38.344Z,13880
2017-08-15T10:33:39.758Z,13944
2017-08-15T10:35:01.295Z,14092
2017-08-15T10:36:02.720Z,14184
2017-08-15T10:37:24.240Z,14272
2017-08-15T10:38:25.667Z,14316
2017-08-15T10:39:47.205Z,14348
2017-08-15T10:40:48.630Z,14308
2017-08-15T10:42:10.149Z,14240
2017-08-15T10:43:11.576Z,14176
2017-08-15T10:44:33.109Z,14116
2017-08-15T10:45:34.812Z,14064
2017-08-15T10:46:56.331Z,14064
2017-08-15T10:47:57.796Z,14068
2017-08-15T10:49:19.338Z,14100
2017-08-15T10:50:20.764Z,14160
2017-08-15T10:51:42.279Z,14288
2017-08-15T10:52:43.708Z,14388
2017-08-15T10:54:05.245Z,14472
2017-08-15T10:55:06.672Z,14460
2017-08-15T10:56:28.197Z,14384
2017-08-15T10:57:29.631Z,14292
2017-08-15T10:58:51.170Z,14120
2017-08-15T10:59:52.709Z,14004
2017-08-15T11:01:14.275Z,13900
2017-08-15T11:02:15.703Z,13852
2017-08-15T11:03:37.248Z,13840
2017-08-15T11:05:18.224Z,13804
2017-08-15T11:06:19.703Z,13788
2017-08-15T11:07:42.215Z,13548
2017-08-15T11:08:43.644Z,13200
2017-08-15T11:10:05.179Z,12552
2017-08-15T11:11:06.607Z,11972
2017-08-15T11:12:28.126Z,11164
2017-08-15T11:13:29.569Z,10632
2017-08-15T11:14:51.112Z,10152
2017-08-15T11:15:52.624Z,10156
2017-08-15T11:17:14.148Z,10644
2017-08-15T11:18:15.840Z,11192
2017-08-15T11:19:37.430Z,11872
2017-08-15T11:20:38.851Z,12228
2017-08-15T11:22:00.561Z,12544
2017-08-15T11:23:02.000Z,12704
2017-08-15T11:24:23.745Z,12892
2017-08-15T11:25:25.164Z,13028
2017-08-15T11:26:47.290Z,13188
2017-08-15T11:27:48.702Z,13264
2017-08-15T11:29:10.244Z,13340
2017-08-15T11:30:11.667Z,13368
2017-08-15T11:31:34.390Z,13340
2017-08-15T11:32:35.887Z,13288
2017-08-15T11:33:57.437Z,13228
2017-08-15T11:34:58.864Z,13200
2017-08-15T11:36:20.384Z,13180
2017-08-15T11:37:21.830Z,13204
2017-08-15T11:38:43.375Z,13312
2017-08-15T11:39:44.803Z,13432
2017-08-15T11:41:06.524Z,13676
2017-08-15T11:42:07.947Z,13880
2017-08-15T11:43:29.489Z,14116
2017-08-15T11:44:30.914Z,14292
2017-08-15T11:45:52.436Z,14484
2017-08-15T11:47:33.330Z,14656
2017-08-15T11:49:14.248Z,14784
2017-08-15T11:50:15.677Z,14736
2017-08-15T11:51:37.211Z,14624
2017-08-15T11:52:38.636Z,14524
2017-08-15T11:54:00.179Z,14484
2017-08-15T11:55:01.607Z,14496
2017-08-15T11:56:23.306Z,14528
2017-08-15T11:57:24.733Z,14512
2017-08-15T11:58:46.275Z,14392
2017-08-15T11:59:47.701Z,14276
2017-08-15T12:01:09.220Z,14032
2017-08-15T12:02:10.651Z,13736
2017-08-15T12:03:32.311Z,13296
2017-08-15T12:04:33.710Z,12960
2017-08-15T12:05:55.228Z,12536
2017-08-15T12:06:56.655Z,12224
2017-08-15T12:08:18.181Z,11812
2017-08-15T12:09:20.793Z,11528
2017-08-15T12:10:42.226Z,11056
2017-08-15T12:11:43.658Z,10540
2017-08-15T12:13:05.186Z,9972
2017-08-15T12:14:06.635Z,9712
2017-08-15T12:15:28.171Z,9460
2017-08-15T12:16:29.596Z,9308
2017-08-15T12:17:51.113Z,9132
2017-08-15T12:18:52.539Z,9192
2017-08-15T12:20:14.081Z,9600
2017-08-15T12:21:15.507Z,10044
2017-08-15T12:22:37.026Z,10612
2017-08-15T12:23:38.452Z,10860
2017-08-15T12:24:59.999Z,10856
2017-08-15T12:26:01.420Z,10708
2017-08-15T12:27:23.938Z,10580
2017-08-15T12:28:25.365Z,10680
2017-08-15T12:29:46.905Z,11000
2017-08-15T12:30:48.331Z,11364
2017-08-15T12:32:09.850Z,11908
2017-08-15T12:33:11.276Z,12184
2017-08-15T12:34:32.815Z,12284
2017-08-15T12:35:34.240Z,12304
2017-08-15T12:36:55.762Z,12548
2017-08-15T12:37:57.189Z,12764
2017-08-15T12:39:18.727Z,12972
2017-08-15T12:40:20.154Z,13104
2017-08-15T12:41:41.828Z,13264
2017-08-15T12:42:43.253Z,12972
2017-08-15T12:44:04.792Z,12200
2017-08-15T12:45:06.219Z,11536
2017-08-15T12:46:27.740Z,10928
2017-08-15T12:47:29.166Z,10592
2017-08-15T12:48:50.705Z,10408
2017-08-15T12:49:52.132Z,10580
2017-08-15T12:51:13.652Z,10640
2017-08-15T12:52:15.077Z,10540
2017-08-15T12:53:36.595Z,10456
2017-08-15T12:54:38.022Z,10656
2017-08-15T12:55:59.564Z,10344
2017-08-15T12:57:00.990Z,9944
2017-08-15T12:58:22.507Z,9356
2017-08-15T12:59:23.932Z,9096
2017-08-15T13:00:45.467Z,9176
2017-08-15T13:01:46.896Z,9540
2017-08-15T13:03:08.411Z,9852
2017-08-15T13:04:09.836Z,9892
2017-08-15T13:05:31.373Z,9440
2017-08-15T13:06:32.800Z,8776
2017-08-15T13:07:54.625Z,7824
2017-08-15T13:08:56.046Z,7180
2017-08-15T13:10:17.624Z,6740
2017-08-15T13:11:58.518Z,6636
2017-08-15T13:13:39.406Z,6924
2017-08-15T13:15:20.320Z,6772
2017-08-15T13:16:22.393Z,6544
2017-08-15T13:17:43.873Z,6280
2017-08-15T13:18:45.298Z,6024
2017-08-15T13:20:06.834Z,5628
2017-08-15T13:21:08.260Z,5348
2017-08-15T13:22:29.784Z,5004
2017-08-15T13:23:31.209Z,4760
2017-08-15T13:24:52.885Z,4472
2017-08-15T13:25:54.311Z,4320
2017-08-15T13:27:15.827Z,4112
2017-08-15T13:28:17.250Z,3996
2017-08-15T13:29:38.784Z,3904
2017-08-15T13:30:40.216Z,3888
2017-08-15T13:32:01.738Z,3860
2017-08-15T13:33:03.161Z,3860
2017-08-15T13:34:24.696Z,3960
2017-08-15T13:35:26.123Z,4028
2017-08-15T13:36:47.641Z,4052
2017-08-15T13:37:49.066Z,4044
2017-08-15T13:39:10.602Z,4052
2017-08-15T13:40:12.026Z,4072
2017-08-15T13:41:33.539Z,4084
2017-08-15T13:42:34.965Z,4080
2017-08-15T13:43:57.363Z,4096
2017-08-15T13:45:38.275Z,4032
2017-08-15T13:46:39.698Z,4028
2017-08-15T13:48:01.220Z,4044
2017-08-15T13:49:02.837Z,4072
2017-08-15T13:50:24.374Z,4084
2017-08-15T13:51:25.800Z,4092
2017-08-15T13:52:47.314Z,4088
2017-08-15T13:53:48.739Z,4072
2017-08-15T13:55:10.277Z,4056
2017-08-15T13:56:11.703Z,4056
2017-08-15T13:57:33.220Z,4100
2017-08-15T13:58:34.645Z,3944
2017-08-15T13:59:56.182Z,3972
2017-08-15T14:00:57.609Z,4076
2017-08-15T14:02:19.127Z,4420
2017-08-15T14:03:20.551Z,4636
2017-08-15T14:04:42.087Z,4272
2017-08-15T14:05:43.514Z,4144
2017-08-15T14:07:05.050Z,4432
2017-08-15T14:08:06.476Z,4984
2017-08-15T14:09:27.997Z,6080
2017-08-15T14:10:29.419Z,7240
2017-08-15T14:11:50.954Z,9016
2017-08-15T14:12:52.378Z,9412
2017-08-15T14:14:14.890Z,9156
2017-08-15T14:15:16.316Z,8732
2017-08-15T14:16:37.848Z,8572
2017-08-15T14:17:39.275Z,8544
2017-08-15T14:19:00.794Z,6968
2017-08-15T14:20:02.219Z,6096
2017-08-15T14:21:24.248Z,5668
2017-08-15T14:22:25.674Z,6072
2017-08-15T14:23:47.189Z,6744
2017-08-15T14:24:48.611Z,6820
2017-08-15T14:26:10.149Z,6800
2017-08-15T14:27:11.577Z,6584
2017-08-15T14:28:33.101Z,6188
2017-08-15T14:29:34.525Z,5924
2017-08-15T14:30:56.061Z,5364
2017-08-15T15:12:33.634Z,5644
2017-08-15T15:13:35.090Z,5168
2017-08-15T15:14:56.605Z,4612
2017-08-15T15:15:58.026Z,4164
2017-08-15T15:17:19.563Z,4128
2017-08-15T15:18:20.985Z,4228
2017-08-15T15:19:42.503Z,4632
2017-08-15T15:20:43.922Z,4596
2017-08-15T15:22:05.466Z,4012
2017-08-15T15:23:06.889Z,3992
2017-08-15T15:24:28.404Z,4192
2017-08-15T15:25:29.826Z,4036
2017-08-15T15:26:51.385Z,3852
2017-08-15T15:27:52.840Z,3692
2017-08-15T15:29:15.545Z,3384
2017-08-15T15:30:16.968Z,3256
2017-08-15T15:31:38.500Z,3184
2017-08-15T15:32:39.924Z,3144
2017-08-15T15:34:01.441Z,3352
2017-08-15T15:35:02.889Z,3672
2017-08-15T15:36:24.407Z,4148
2017-08-15T15:37:25.868Z,4688
2017-08-15T15:38:47.433Z,5124
2017-08-15T15:39:48.993Z,5344
2017-08-15T15:41:10.510Z,5516
2017-08-15T15:42:11.933Z,5744
2017-08-15T15:43:33.461Z,6188
2017-08-15T15:44:34.891Z,6216
2017-08-15T15:45:56.409Z,6396
2017-08-15T15:46:57.831Z,6328
2017-08-15T15:48:19.370Z,6428
2017-08-15T15:49:20.794Z,6212
2017-08-15T15:50:42.310Z,5568
2017-08-15T15:51:43.731Z,5096
2017-08-15T15:53:05.262Z,4492
2017-08-15T15:54:06.752Z,4172
2017-08-15T15:55:28.261Z,3732
2017-08-15T15:57:10.397Z,3300
2017-08-15T15:59:02.730Z,3064
2017-08-15T16:00:04.162Z,2716
2017-08-15T16:01:25.722Z,2428
2017-08-15T16:02:27.381Z,2380
2017-08-15T16:03:48.903Z,2596
2017-08-15T16:04:50.321Z,2924
2017-08-15T16:06:11.840Z,3564
2017-08-15T16:07:13.271Z,3996
2017-08-15T16:08:34.802Z,4612
2017-08-15T16:09:36.227Z,4948
2017-08-15T16:10:57.744Z,5164
2017-08-15T16:11:59.179Z,5236
2017-08-15T16:13:20.705Z,5532
2017-08-15T16:14:22.131Z,5832
2017-08-15T16:15:43.648Z,6076
2017-08-15T16:16:45.069Z,6140
2017-08-15T16:18:06.602Z,5988
2017-08-15T16:19:08.026Z,5552
2017-08-15T16:20:29.544Z,5452
2017-08-15T16:21:30.964Z,5396
2017-08-15T16:22:52.715Z,5200
2017-08-15T16:23:54.142Z,5036
2017-08-15T16:25:15.914Z,4888
2017-08-15T16:26:17.338Z,4720
2017-08-15T16:27:38.875Z,4636
2017-08-15T16:28:40.299Z,4308
2017-08-15T16:30:01.815Z,3900
2017-08-15T16:31:03.239Z,3952
2017-08-15T16:32:24.771Z,4076
2017-08-15T16:33:26.205Z,4080
2017-08-15T16:34:47.722Z,4124
2017-08-15T16:35:49.169Z,4196
2017-08-15T16:37:10.719Z,4212
2017-08-15T16:38:12.141Z,4096
2017-08-15T16:39:33.896Z,4148
2017-08-15T16:40:35.379Z,4448
2017-08-15T16:41:56.907Z,4788
2017-08-15T16:42:58.537Z,4720
2017-08-15T16:44:20.092Z,4444
2017-08-15T16:45:21.514Z,4232
2017-08-15T16:46:43.048Z,3728
2017-08-15T16:47:44.471Z,3396
2017-08-15T16:49:05.984Z,3196
2017-08-15T16:50:07.417Z,3108
2017-08-15T16:51:28.928Z,3212
2017-08-15T16:52:30.499Z,3352
2017-08-15T16:53:52.282Z,3428
2017-08-15T16:54:53.789Z,3568
2017-08-15T16:56:15.443Z,3792
2017-08-15T16:57:17.527Z,3752
2017-08-15T16:58:40.760Z,3012
2017-08-15T16:59:42.504Z,2472
2017-08-15T17:01:04.010Z,1948
2017-08-15T17:02:05.436Z,1596
2017-08-15T17:03:27.060Z,1332
2017-08-15T17:04:28.477Z,1336
2017-08-15T17:05:50.297Z,1244
2017-08-15T17:06:51.743Z,1108
2017-08-15T17:08:13.816Z,1056
2017-08-15T17:09:15.284Z,992
2017-08-15T17:10:37.981Z,956
